sensor_id;sensor_type;location;lat;lon;timestamp;P1;durP1;ratioP1;P2;durP2;ratioP2
16820;SDS011;8527;49.740;6.604;2022-12-01T00:00:09;34.42;;;14.77;;
16820;SDS011;8527;49.740;6.604;2022-12-01T00:05:12;33.83;;;13.77;;
16820;SDS011;8527;49.740;6.604;2022-12-01T00:10:13;33.00;;;13.52;;
16820;SDS011;8527;49.740;6.604;2022-12-01T00:15:24;31.48;;;12.80;;
16820;SDS011;8527;49.740;6.604;2022-12-01T00:20:31;37.40;;;14.45;;
16820;SDS011;8527;49.740;6.604;2022-12-01T00:25:33;37.10;;;14.57;;
16820;SDS011;8527;49.740;6.604;2022-12-01T00:30:35;31.75;;;14.35;;
16820;SDS011;8527;49.740;6.604;2022-12-01T00:35:39;34.45;;;13.30;;
16820;SDS011;8527;49.740;6.604;2022-12-01T00:40:40;33.97;;;14.95;;
16820;SDS011;8527;49.740;6.604;2022-12-01T00:45:48;33.88;;;14.43;;
16820;SDS011;8527;49.740;6.604;2022-12-01T00:50:46;31.92;;;13.00;;
16820;SDS011;8527;49.740;6.604;2022-12-01T00:55:48;32.30;;;12.43;;
16820;SDS011;8527;49.740;6.604;2022-12-01T01:00:55;29.55;;;13.23;;
16820;SDS011;8527;49.740;6.604;2022-12-01T01:05:54;32.15;;;13.05;;
16820;SDS011;8527;49.740;6.604;2022-12-01T01:10:57;34.80;;;12.85;;
16820;SDS011;8527;49.740;6.604;2022-12-01T01:15:57;32.03;;;13.48;;
16820;SDS011;8527;49.740;6.604;2022-12-01T01:21:01;28.85;;;12.15;;
16820;SDS011;8527;49.740;6.604;2022-12-01T01:26:07;30.52;;;12.10;;
16820;SDS011;8527;49.740;6.604;2022-12-01T01:31:08;32.15;;;12.60;;
16820;SDS011;8527;49.740;6.604;2022-12-01T01:36:15;31.63;;;13.73;;
16820;SDS011;8527;49.740;6.604;2022-12-01T01:41:25;35.67;;;14.00;;
16820;SDS011;8527;49.740;6.604;2022-12-01T01:46:25;25.40;;;11.15;;
16820;SDS011;8527;49.740;6.604;2022-12-01T01:51:39;34.13;;;13.95;;
16820;SDS011;8527;49.740;6.604;2022-12-01T01:56:43;26.17;;;12.13;;
16820;SDS011;8527;49.740;6.604;2022-12-01T02:01:44;32.78;;;13.10;;
16820;SDS011;8527;49.740;6.604;2022-12-01T02:06:47;31.08;;;12.68;;
16820;SDS011;8527;49.740;6.604;2022-12-01T02:12:00;25.52;;;11.57;;
16820;SDS011;8527;49.740;6.604;2022-12-01T02:17:12;26.40;;;11.77;;
16820;SDS011;8527;49.740;6.604;2022-12-01T02:22:23;22.85;;;10.00;;
16820;SDS011;8527;49.740;6.604;2022-12-01T02:33:22;22.38;;;10.05;;
16820;SDS011;8527;49.740;6.604;2022-12-01T02:38:27;19.23;;;8.50;;
16820;SDS011;8527;49.740;6.604;2022-12-01T02:43:29;20.75;;;9.70;;
16820;SDS011;8527;49.740;6.604;2022-12-01T02:48:45;19.15;;;9.15;;
16820;SDS011;8527;49.740;6.604;2022-12-01T02:53:46;22.67;;;8.95;;
16820;SDS011;8527;49.740;6.604;2022-12-01T02:58:48;21.90;;;9.63;;
16820;SDS011;8527;49.740;6.604;2022-12-01T03:03:59;18.73;;;9.40;;
16820;SDS011;8527;49.740;6.604;2022-12-01T03:09:06;20.08;;;8.93;;
16820;SDS011;8527;49.740;6.604;2022-12-01T03:14:15;18.77;;;9.27;;
16820;SDS011;8527;49.740;6.604;2022-12-01T03:19:28;19.83;;;9.35;;
16820;SDS011;8527;49.740;6.604;2022-12-01T03:24:33;17.83;;;8.98;;
16820;SDS011;8527;49.740;6.604;2022-12-01T03:29:44;18.20;;;9.45;;
16820;SDS011;8527;49.740;6.604;2022-12-01T03:34:51;20.45;;;9.77;;
16820;SDS011;8527;49.740;6.604;2022-12-01T03:39:54;22.35;;;9.63;;
16820;SDS011;8527;49.740;6.604;2022-12-01T03:44:54;18.85;;;9.02;;
16820;SDS011;8527;49.740;6.604;2022-12-01T03:50:01;20.58;;;9.50;;
16820;SDS011;8527;49.740;6.604;2022-12-01T03:55:04;17.80;;;8.35;;
16820;SDS011;8527;49.740;6.604;2022-12-01T04:00:08;20.02;;;7.68;;
16820;SDS011;8527;49.740;6.604;2022-12-01T04:05:11;21.23;;;7.05;;
16820;SDS011;8527;49.740;6.604;2022-12-01T04:10:09;19.20;;;8.05;;
16820;SDS011;8527;49.740;6.604;2022-12-01T04:15:09;18.63;;;8.38;;
16820;SDS011;8527;49.740;6.604;2022-12-01T04:20:15;19.08;;;8.13;;
16820;SDS011;8527;49.740;6.604;2022-12-01T04:25:14;17.92;;;8.10;;
16820;SDS011;8527;49.740;6.604;2022-12-01T04:30:13;18.90;;;8.60;;
16820;SDS011;8527;49.740;6.604;2022-12-01T04:35:21;22.38;;;8.60;;
16820;SDS011;8527;49.740;6.604;2022-12-01T04:40:26;17.17;;;8.20;;
16820;SDS011;8527;49.740;6.604;2022-12-01T04:45:24;17.85;;;8.00;;
16820;SDS011;8527;49.740;6.604;2022-12-01T04:50:28;19.40;;;8.43;;
16820;SDS011;8527;49.740;6.604;2022-12-01T04:55:34;16.90;;;8.00;;
16820;SDS011;8527;49.740;6.604;2022-12-01T05:00:39;18.48;;;7.88;;
16820;SDS011;8527;49.740;6.604;2022-12-01T05:05:40;18.48;;;8.63;;
16820;SDS011;8527;49.740;6.604;2022-12-01T05:10:39;16.88;;;8.45;;
16820;SDS011;8527;49.740;6.604;2022-12-01T05:15:37;17.80;;;7.40;;
16820;SDS011;8527;49.740;6.604;2022-12-01T05:20:42;17.00;;;8.25;;
16820;SDS011;8527;49.740;6.604;2022-12-01T05:30:56;16.90;;;7.82;;
16820;SDS011;8527;49.740;6.604;2022-12-01T05:35:57;18.23;;;7.25;;
16820;SDS011;8527;49.740;6.604;2022-12-01T05:40:56;17.23;;;8.07;;
16820;SDS011;8527;49.740;6.604;2022-12-01T05:45:54;16.88;;;7.97;;
16820;SDS011;8527;49.740;6.604;2022-12-01T05:50:53;16.55;;;8.25;;
16820;SDS011;8527;49.740;6.604;2022-12-01T05:55:54;14.73;;;8.15;;
16820;SDS011;8527;49.740;6.604;2022-12-01T06:00:52;15.10;;;6.93;;
16820;SDS011;8527;49.740;6.604;2022-12-01T06:05:53;12.95;;;5.97;;
16820;SDS011;8527;49.740;6.604;2022-12-01T06:10:55;13.93;;;6.60;;
16820;SDS011;8527;49.740;6.604;2022-12-01T06:15:56;15.35;;;7.20;;
16820;SDS011;8527;49.740;6.604;2022-12-01T06:21:05;13.38;;;6.72;;
16820;SDS011;8527;49.740;6.604;2022-12-01T06:26:06;12.35;;;5.30;;
16820;SDS011;8527;49.740;6.604;2022-12-01T06:31:05;11.38;;;6.07;;
16820;SDS011;8527;49.740;6.604;2022-12-01T06:36:07;14.75;;;6.00;;
16820;SDS011;8527;49.740;6.604;2022-12-01T06:41:09;14.27;;;6.30;;
16820;SDS011;8527;49.740;6.604;2022-12-01T06:46:08;10.35;;;5.07;;
16820;SDS011;8527;49.740;6.604;2022-12-01T06:51:12;13.20;;;5.63;;
16820;SDS011;8527;49.740;6.604;2022-12-01T06:56:19;12.70;;;6.13;;
16820;SDS011;8527;49.740;6.604;2022-12-01T07:01:20;11.10;;;5.43;;
16820;SDS011;8527;49.740;6.604;2022-12-01T07:06:19;10.70;;;5.68;;
16820;SDS011;8527;49.740;6.604;2022-12-01T07:11:24;10.48;;;5.55;;
16820;SDS011;8527;49.740;6.604;2022-12-01T07:16:30;10.68;;;5.47;;
16820;SDS011;8527;49.740;6.604;2022-12-01T07:21:28;11.05;;;5.22;;
16820;SDS011;8527;49.740;6.604;2022-12-01T07:26:29;9.45;;;5.03;;
16820;SDS011;8527;49.740;6.604;2022-12-01T07:31:27;10.63;;;5.43;;
16820;SDS011;8527;49.740;6.604;2022-12-01T07:36:27;9.55;;;5.00;;
16820;SDS011;8527;49.740;6.604;2022-12-01T07:41:25;12.35;;;5.45;;
16820;SDS011;8527;49.740;6.604;2022-12-01T07:46:26;11.43;;;5.25;;
16820;SDS011;8527;49.740;6.604;2022-12-01T07:51:28;12.00;;;5.70;;
16820;SDS011;8527;49.740;6.604;2022-12-01T07:56:47;12.45;;;5.15;;
16820;SDS011;8527;49.740;6.604;2022-12-01T08:01:51;10.38;;;5.47;;
16820;SDS011;8527;49.740;6.604;2022-12-01T08:06:49;10.98;;;5.78;;
16820;SDS011;8527;49.740;6.604;2022-12-01T08:11:48;10.43;;;5.43;;
16820;SDS011;8527;49.740;6.604;2022-12-01T08:16:46;11.13;;;5.65;;
16820;SDS011;8527;49.740;6.604;2022-12-01T08:21:51;11.18;;;6.18;;
16820;SDS011;8527;49.740;6.604;2022-12-01T08:26:52;13.88;;;6.20;;
16820;SDS011;8527;49.740;6.604;2022-12-01T08:31:50;13.65;;;5.80;;
16820;SDS011;8527;49.740;6.604;2022-12-01T08:36:54;15.40;;;6.57;;
16820;SDS011;8527;49.740;6.604;2022-12-01T08:41:56;14.20;;;6.37;;
16820;SDS011;8527;49.740;6.604;2022-12-01T08:46:54;13.05;;;6.18;;
16820;SDS011;8527;49.740;6.604;2022-12-01T08:51:55;14.63;;;6.10;;
16820;SDS011;8527;49.740;6.604;2022-12-01T08:56:54;13.05;;;5.80;;
16820;SDS011;8527;49.740;6.604;2022-12-01T09:01:52;8.85;;;4.53;;
16820;SDS011;8527;49.740;6.604;2022-12-01T09:06:52;12.70;;;6.25;;
16820;SDS011;8527;49.740;6.604;2022-12-01T09:11:54;13.43;;;6.60;;
16820;SDS011;8527;49.740;6.604;2022-12-01T09:16:52;8.75;;;5.10;;
16820;SDS011;8527;49.740;6.604;2022-12-01T09:21:51;15.85;;;6.53;;
16820;SDS011;8527;49.740;6.604;2022-12-01T09:26:52;9.95;;;4.85;;
16820;SDS011;8527;49.740;6.604;2022-12-01T09:31:53;10.95;;;5.97;;
16820;SDS011;8527;49.740;6.604;2022-12-01T09:36:53;11.25;;;6.00;;
16820;SDS011;8527;49.740;6.604;2022-12-01T09:41:56;12.43;;;5.47;;
16820;SDS011;8527;49.740;6.604;2022-12-01T09:47:05;13.07;;;6.72;;
16820;SDS011;8527;49.740;6.604;2022-12-01T09:52:15;12.15;;;5.55;;
16820;SDS011;8527;49.740;6.604;2022-12-01T09:57:21;11.77;;;5.75;;
16820;SDS011;8527;49.740;6.604;2022-12-01T10:02:30;12.85;;;6.43;;
16820;SDS011;8527;49.740;6.604;2022-12-01T10:07:32;15.15;;;6.32;;
16820;SDS011;8527;49.740;6.604;2022-12-01T10:12:39;12.20;;;6.45;;
16820;SDS011;8527;49.740;6.604;2022-12-01T10:17:44;13.03;;;6.50;;
16820;SDS011;8527;49.740;6.604;2022-12-01T10:23:02;14.55;;;6.80;;
16820;SDS011;8527;49.740;6.604;2022-12-01T10:28:30;19.83;;;8.13;;
16820;SDS011;8527;49.740;6.604;2022-12-01T10:33:44;13.63;;;5.70;;
16820;SDS011;8527;49.740;6.604;2022-12-01T10:38:56;11.25;;;6.10;;
16820;SDS011;8527;49.740;6.604;2022-12-01T10:43:58;12.98;;;7.15;;
16820;SDS011;8527;49.740;6.604;2022-12-01T10:49:08;16.27;;;7.82;;
16820;SDS011;8527;49.740;6.604;2022-12-01T10:59:19;14.90;;;7.45;;
16820;SDS011;8527;49.740;6.604;2022-12-01T11:04:26;16.00;;;7.60;;
16820;SDS011;8527;49.740;6.604;2022-12-01T11:09:30;13.10;;;6.68;;
16820;SDS011;8527;49.740;6.604;2022-12-01T11:14:35;12.85;;;7.22;;
16820;SDS011;8527;49.740;6.604;2022-12-01T11:19:40;16.63;;;7.82;;
16820;SDS011;8527;49.740;6.604;2022-12-01T11:24:42;13.00;;;7.10;;
16820;SDS011;8527;49.740;6.604;2022-12-01T11:29:45;14.38;;;7.15;;
16820;SDS011;8527;49.740;6.604;2022-12-01T11:34:50;13.00;;;7.15;;
16820;SDS011;8527;49.740;6.604;2022-12-01T11:44:55;15.65;;;9.07;;
16820;SDS011;8527;49.740;6.604;2022-12-01T11:50:02;19.00;;;9.45;;
16820;SDS011;8527;49.740;6.604;2022-12-01T11:55:20;15.18;;;7.85;;
16820;SDS011;8527;49.740;6.604;2022-12-01T12:00:24;20.10;;;9.32;;
16820;SDS011;8527;49.740;6.604;2022-12-01T12:05:40;22.65;;;9.93;;
16820;SDS011;8527;49.740;6.604;2022-12-01T12:10:47;21.40;;;10.30;;
16820;SDS011;8527;49.740;6.604;2022-12-01T12:16:02;16.25;;;7.78;;
16820;SDS011;8527;49.740;6.604;2022-12-01T12:21:12;30.20;;;13.05;;
16820;SDS011;8527;49.740;6.604;2022-12-01T12:26:18;23.48;;;11.75;;
16820;SDS011;8527;49.740;6.604;2022-12-01T12:31:23;23.88;;;10.95;;
16820;SDS011;8527;49.740;6.604;2022-12-01T12:36:34;23.77;;;10.73;;
16820;SDS011;8527;49.740;6.604;2022-12-01T12:41:41;22.42;;;10.20;;
16820;SDS011;8527;49.740;6.604;2022-12-01T12:46:47;26.27;;;12.07;;
16820;SDS011;8527;49.740;6.604;2022-12-01T12:51:56;25.20;;;10.73;;
16820;SDS011;8527;49.740;6.604;2022-12-01T12:56:59;25.13;;;11.68;;
16820;SDS011;8527;49.740;6.604;2022-12-01T13:02:07;24.75;;;11.25;;
16820;SDS011;8527;49.740;6.604;2022-12-01T13:12:18;19.08;;;9.75;;
16820;SDS011;8527;49.740;6.604;2022-12-01T13:17:27;23.40;;;10.38;;
16820;SDS011;8527;49.740;6.604;2022-12-01T13:22:31;18.45;;;8.75;;
16820;SDS011;8527;49.740;6.604;2022-12-01T13:27:33;18.52;;;9.35;;
16820;SDS011;8527;49.740;6.604;2022-12-01T13:32:40;22.77;;;10.27;;
16820;SDS011;8527;49.740;6.604;2022-12-01T13:37:38;25.08;;;11.05;;
16820;SDS011;8527;49.740;6.604;2022-12-01T13:42:37;28.73;;;9.93;;
16820;SDS011;8527;49.740;6.604;2022-12-01T13:47:47;20.73;;;10.48;;
16820;SDS011;8527;49.740;6.604;2022-12-01T13:52:49;25.25;;;10.50;;
16820;SDS011;8527;49.740;6.604;2022-12-01T14:03:42;23.20;;;10.75;;
16820;SDS011;8527;49.740;6.604;2022-12-01T14:08:52;21.60;;;9.00;;
16820;SDS011;8527;49.740;6.604;2022-12-01T14:13:58;18.38;;;9.80;;
16820;SDS011;8527;49.740;6.604;2022-12-01T14:19:09;19.05;;;10.10;;
16820;SDS011;8527;49.740;6.604;2022-12-01T14:24:33;19.98;;;8.82;;
16820;SDS011;8527;49.740;6.604;2022-12-01T14:29:34;18.05;;;9.20;;
16820;SDS011;8527;49.740;6.604;2022-12-01T14:34:39;16.98;;;8.25;;
16820;SDS011;8527;49.740;6.604;2022-12-01T14:39:39;16.63;;;9.05;;
16820;SDS011;8527;49.740;6.604;2022-12-01T14:44:49;15.97;;;7.87;;
16820;SDS011;8527;49.740;6.604;2022-12-01T14:49:54;13.65;;;6.57;;
16820;SDS011;8527;49.740;6.604;2022-12-01T14:55:02;17.42;;;8.15;;
16820;SDS011;8527;49.740;6.604;2022-12-01T15:00:04;19.92;;;9.63;;
16820;SDS011;8527;49.740;6.604;2022-12-01T15:05:14;18.75;;;7.88;;
16820;SDS011;8527;49.740;6.604;2022-12-01T15:10:15;25.95;;;12.07;;
16820;SDS011;8527;49.740;6.604;2022-12-01T15:15:17;20.95;;;9.68;;
16820;SDS011;8527;49.740;6.604;2022-12-01T15:20:28;21.50;;;9.20;;
16820;SDS011;8527;49.740;6.604;2022-12-01T15:25:29;17.27;;;8.23;;
16820;SDS011;8527;49.740;6.604;2022-12-01T15:30:31;14.82;;;8.05;;
16820;SDS011;8527;49.740;6.604;2022-12-01T15:35:35;19.05;;;8.77;;
16820;SDS011;8527;49.740;6.604;2022-12-01T15:40:34;17.92;;;9.55;;
16820;SDS011;8527;49.740;6.604;2022-12-01T15:45:47;18.00;;;8.85;;
16820;SDS011;8527;49.740;6.604;2022-12-01T15:50:57;19.55;;;8.65;;
16820;SDS011;8527;49.740;6.604;2022-12-01T15:55:59;18.92;;;9.27;;
16820;SDS011;8527;49.740;6.604;2022-12-01T16:01:08;17.35;;;8.50;;
16820;SDS011;8527;49.740;6.604;2022-12-01T16:06:21;23.70;;;9.75;;
16820;SDS011;8527;49.740;6.604;2022-12-01T16:11:21;21.38;;;9.75;;
16820;SDS011;8527;49.740;6.604;2022-12-01T16:16:28;25.80;;;12.60;;
16820;SDS011;8527;49.740;6.604;2022-12-01T16:21:43;29.35;;;13.75;;
16820;SDS011;8527;49.740;6.604;2022-12-01T16:26:48;35.80;;;16.98;;
16820;SDS011;8527;49.740;6.604;2022-12-01T16:31:54;34.80;;;16.08;;
16820;SDS011;8527;49.740;6.604;2022-12-01T16:36:57;39.33;;;17.15;;
16820;SDS011;8527;49.740;6.604;2022-12-01T16:41:58;34.63;;;16.23;;
16820;SDS011;8527;49.740;6.604;2022-12-01T16:47:00;26.98;;;13.18;;
16820;SDS011;8527;49.740;6.604;2022-12-01T16:52:01;31.77;;;14.60;;
16820;SDS011;8527;49.740;6.604;2022-12-01T16:56:59;35.72;;;16.42;;
16820;SDS011;8527;49.740;6.604;2022-12-01T17:01:59;30.55;;;13.98;;
16820;SDS011;8527;49.740;6.604;2022-12-01T17:06:57;25.45;;;12.65;;
16820;SDS011;8527;49.740;6.604;2022-12-01T17:11:59;26.85;;;12.45;;
16820;SDS011;8527;49.740;6.604;2022-12-01T17:16:57;25.75;;;13.25;;
16820;SDS011;8527;49.740;6.604;2022-12-01T17:22:03;23.50;;;11.35;;
16820;SDS011;8527;49.740;6.604;2022-12-01T17:27:04;21.08;;;10.98;;
16820;SDS011;8527;49.740;6.604;2022-12-01T17:32:08;18.70;;;9.57;;
16820;SDS011;8527;49.740;6.604;2022-12-01T17:37:10;17.13;;;8.20;;
16820;SDS011;8527;49.740;6.604;2022-12-01T17:42:14;14.48;;;7.60;;
16820;SDS011;8527;49.740;6.604;2022-12-01T17:47:15;15.23;;;7.75;;
16820;SDS011;8527;49.740;6.604;2022-12-01T17:52:14;20.17;;;9.23;;
16820;SDS011;8527;49.740;6.604;2022-12-01T17:57:17;25.00;;;10.93;;
16820;SDS011;8527;49.740;6.604;2022-12-01T18:02:22;25.20;;;12.02;;
16820;SDS011;8527;49.740;6.604;2022-12-01T18:07:20;21.77;;;11.32;;
16820;SDS011;8527;49.740;6.604;2022-12-01T18:12:21;26.88;;;11.48;;
16820;SDS011;8527;49.740;6.604;2022-12-01T18:17:23;24.80;;;11.32;;
16820;SDS011;8527;49.740;6.604;2022-12-01T18:22:29;27.58;;;11.07;;
16820;SDS011;8527;49.740;6.604;2022-12-01T18:27:37;37.90;;;14.45;;
16820;SDS011;8527;49.740;6.604;2022-12-01T18:32:35;37.72;;;15.32;;
16820;SDS011;8527;49.740;6.604;2022-12-01T18:37:35;45.05;;;17.48;;
16820;SDS011;8527;49.740;6.604;2022-12-01T18:42:40;40.05;;;17.35;;
16820;SDS011;8527;49.740;6.604;2022-12-01T18:47:41;44.97;;;17.10;;
16820;SDS011;8527;49.740;6.604;2022-12-01T18:52:40;41.22;;;18.27;;
16820;SDS011;8527;49.740;6.604;2022-12-01T18:57:41;35.70;;;14.43;;
16820;SDS011;8527;49.740;6.604;2022-12-01T19:02:39;36.65;;;15.10;;
16820;SDS011;8527;49.740;6.604;2022-12-01T19:07:38;45.97;;;18.08;;
16820;SDS011;8527;49.740;6.604;2022-12-01T19:12:36;43.10;;;16.65;;
16820;SDS011;8527;49.740;6.604;2022-12-01T19:17:37;45.63;;;15.85;;
16820;SDS011;8527;49.740;6.604;2022-12-01T19:22:36;40.92;;;16.70;;
16820;SDS011;8527;49.740;6.604;2022-12-01T19:27:35;34.17;;;14.75;;
16820;SDS011;8527;49.740;6.604;2022-12-01T19:32:46;36.53;;;15.27;;
16820;SDS011;8527;49.740;6.604;2022-12-01T19:37:50;48.17;;;18.13;;
16820;SDS011;8527;49.740;6.604;2022-12-01T19:42:48;38.63;;;16.38;;
16820;SDS011;8527;49.740;6.604;2022-12-01T19:47:52;45.05;;;16.38;;
16820;SDS011;8527;49.740;6.604;2022-12-01T19:52:56;42.80;;;16.58;;
16820;SDS011;8527;49.740;6.604;2022-12-01T19:57:55;47.78;;;17.67;;
16820;SDS011;8527;49.740;6.604;2022-12-01T20:02:56;48.85;;;17.63;;
16820;SDS011;8527;49.740;6.604;2022-12-01T20:07:56;47.22;;;18.20;;
16820;SDS011;8527;49.740;6.604;2022-12-01T20:12:54;43.33;;;17.42;;
16820;SDS011;8527;49.740;6.604;2022-12-01T20:17:53;48.55;;;17.67;;
16820;SDS011;8527;49.740;6.604;2022-12-01T20:22:54;51.55;;;16.17;;
16820;SDS011;8527;49.740;6.604;2022-12-01T20:27:55;47.88;;;17.80;;
16820;SDS011;8527;49.740;6.604;2022-12-01T20:32:58;44.58;;;15.40;;
16820;SDS011;8527;49.740;6.604;2022-12-01T20:37:57;41.47;;;16.55;;
16820;SDS011;8527;49.740;6.604;2022-12-01T20:42:55;44.30;;;16.40;;
16820;SDS011;8527;49.740;6.604;2022-12-01T20:47:54;35.90;;;16.10;;
16820;SDS011;8527;49.740;6.604;2022-12-01T20:52:55;49.97;;;17.55;;
16820;SDS011;8527;49.740;6.604;2022-12-01T20:57:56;43.55;;;15.63;;
16820;SDS011;8527;49.740;6.604;2022-12-01T21:02:56;46.65;;;17.83;;
16820;SDS011;8527;49.740;6.604;2022-12-01T21:07:57;50.53;;;18.98;;
16820;SDS011;8527;49.740;6.604;2022-12-01T21:13:01;47.63;;;17.38;;
16820;SDS011;8527;49.740;6.604;2022-12-01T21:18:28;49.78;;;17.77;;
16820;SDS011;8527;49.740;6.604;2022-12-01T21:23:35;50.40;;;18.08;;
16820;SDS011;8527;49.740;6.604;2022-12-01T21:28:34;37.85;;;15.35;;
16820;SDS011;8527;49.740;6.604;2022-12-01T21:33:37;33.83;;;14.68;;
16820;SDS011;8527;49.740;6.604;2022-12-01T21:38:38;48.40;;;18.17;;
16820;SDS011;8527;49.740;6.604;2022-12-01T21:43:38;47.30;;;18.40;;
16820;SDS011;8527;49.740;6.604;2022-12-01T21:48:36;48.20;;;17.15;;
16820;SDS011;8527;49.740;6.604;2022-12-01T21:53:37;44.67;;;15.80;;
16820;SDS011;8527;49.740;6.604;2022-12-01T21:58:44;48.28;;;18.73;;
16820;SDS011;8527;49.740;6.604;2022-12-01T22:03:46;54.45;;;19.30;;
16820;SDS011;8527;49.740;6.604;2022-12-01T22:08:48;48.38;;;18.67;;
16820;SDS011;8527;49.740;6.604;2022-12-01T22:13:49;55.88;;;18.27;;
16820;SDS011;8527;49.740;6.604;2022-12-01T22:18:51;46.22;;;18.40;;
16820;SDS011;8527;49.740;6.604;2022-12-01T22:23:56;50.92;;;18.45;;
16820;SDS011;8527;49.740;6.604;2022-12-01T22:29:02;52.80;;;17.75;;
16820;SDS011;8527;49.740;6.604;2022-12-01T22:34:20;46.80;;;16.98;;
16820;SDS011;8527;49.740;6.604;2022-12-01T22:39:24;47.55;;;17.77;;
16820;SDS011;8527;49.740;6.604;2022-12-01T22:44:29;43.13;;;16.33;;
16820;SDS011;8527;49.740;6.604;2022-12-01T22:49:30;58.20;;;19.15;;
16820;SDS011;8527;49.740;6.604;2022-12-01T22:54:33;53.17;;;19.20;;
16820;SDS011;8527;49.740;6.604;2022-12-01T22:59:35;55.88;;;20.73;;
16820;SDS011;8527;49.740;6.604;2022-12-01T23:04:36;48.80;;;18.02;;
16820;SDS011;8527;49.740;6.604;2022-12-01T23:09:40;49.67;;;17.90;;
16820;SDS011;8527;49.740;6.604;2022-12-01T23:14:40;51.30;;;18.00;;
16820;SDS011;8527;49.740;6.604;2022-12-01T23:19:41;45.78;;;16.00;;
16820;SDS011;8527;49.740;6.604;2022-12-01T23:24:45;41.00;;;17.02;;
16820;SDS011;8527;49.740;6.604;2022-12-01T23:29:43;67.30;;;19.08;;
16820;SDS011;8527;49.740;6.604;2022-12-01T23:34:45;49.38;;;17.70;;
16820;SDS011;8527;49.740;6.604;2022-12-01T23:39:49;35.75;;;14.75;;
16820;SDS011;8527;49.740;6.604;2022-12-01T23:44:48;47.38;;;17.80;;
16820;SDS011;8527;49.740;6.604;2022-12-01T23:49:46;53.95;;;17.92;;
16820;SDS011;8527;49.740;6.604;2022-12-01T23:54:54;54.97;;;18.90;;
16820;SDS011;8527;49.740;6.604;2022-12-01T23:59:57;54.90;;;18.83;;
